DAOB/TID METAR and TAF weather

Enter ICAO airport designator
Station Type Date Time Source
DAOB METAR 2021/05/12 00:00 UTC NOAA

DAOB 120000Z 25004KT CAVOK 07/01 Q1024


Station Type Date Time Source
DAOB Decoded METAR 2021/05/12 00:00 UTC NOAA

Tiaret, Algeria (DAOB) 35-15N 001-26E 1127M
May 11, 2021 - 08:00 PM EDT / 2021.05.12 0000 UTC
Wind: from the WSW (250 degrees) at 5 MPH (4 KT):0
Visibility: greater than 7 mile(s):0
Temperature: 44 F (7 C)
Dew Point: 33 F (1 C)
Relative Humidity: 65%
Pressure (altimeter): 30.24 in. Hg (1024 hPa)
ob: DAOB 120000Z 25004KT CAVOK 07/01 Q1024
cycle: 0

Station Type Date Time Source
DAOB TAF 2021/05/11 18:33 UTC NOAA

TAF DAOB 111700Z 1118/1218 29012KT 9999 FEW026
BECMG 1122/1201 VRB02KT

Example: see airport list